sensor_id;sensor_type;location;lat;lon;timestamp;temperature;humidity
41985;DHT22;28319;48.116;10.818;2023-04-01T00:02:52;6.80;99.90
41985;DHT22;28319;48.116;10.818;2023-04-01T00:07:54;6.80;99.90
41985;DHT22;28319;48.116;10.818;2023-04-01T00:12:57;6.80;99.90
41985;DHT22;28319;48.116;10.818;2023-04-01T00:18:00;6.80;99.90
41985;DHT22;28319;48.116;10.818;2023-04-01T00:23:03;6.80;99.90
41985;DHT22;28319;48.116;10.818;2023-04-01T00:28:06;6.80;99.90
41985;DHT22;28319;48.116;10.818;2023-04-01T00:33:10;6.90;99.90
41985;DHT22;28319;48.116;10.818;2023-04-01T00:38:13;6.90;99.90
41985;DHT22;28319;48.116;10.818;2023-04-01T00:43:19;7.10;99.90
41985;DHT22;28319;48.116;10.818;2023-04-01T00:48:26;7.10;99.90
41985;DHT22;28319;48.116;10.818;2023-04-01T00:53:30;7.10;99.90
41985;DHT22;28319;48.116;10.818;2023-04-01T00:58:37;7.10;99.90
41985;DHT22;28319;48.116;10.818;2023-04-01T01:03:41;7.00;99.90
41985;DHT22;28319;48.116;10.818;2023-04-01T01:14:29;7.00;99.90
41985;DHT22;28319;48.116;10.818;2023-04-01T01:19:57;7.10;99.90
41985;DHT22;28319;48.116;10.818;2023-04-01T01:25:18;7.00;99.90
41985;DHT22;28319;48.116;10.818;2023-04-01T01:30:37;7.00;99.90
41985;DHT22;28319;48.116;10.818;2023-04-01T01:35:44;7.00;99.90
41985;DHT22;28319;48.116;10.818;2023-04-01T01:40:50;7.00;99.90
41985;DHT22;28319;48.116;10.818;2023-04-01T01:45:55;7.00;99.90
41985;DHT22;28319;48.116;10.818;2023-04-01T01:51:00;7.00;99.90
41985;DHT22;28319;48.116;10.818;2023-04-01T01:56:03;6.90;99.90
41985;DHT22;28319;48.116;10.818;2023-04-01T02:01:08;6.90;99.90
41985;DHT22;28319;48.116;10.818;2023-04-01T02:06:15;6.80;99.90
41985;DHT22;28319;48.116;10.818;2023-04-01T02:11:26;6.80;99.90
41985;DHT22;28319;48.116;10.818;2023-04-01T02:16:32;6.80;99.90
41985;DHT22;28319;48.116;10.818;2023-04-01T02:21:39;6.70;99.90
41985;DHT22;28319;48.116;10.818;2023-04-01T02:26:43;6.60;99.90
41985;DHT22;28319;48.116;10.818;2023-04-01T02:31:46;6.60;99.90
41985;DHT22;28319;48.116;10.818;2023-04-01T02:36:50;6.60;99.90
41985;DHT22;28319;48.116;10.818;2023-04-01T02:41:54;6.60;99.90
41985;DHT22;28319;48.116;10.818;2023-04-01T02:46:56;6.50;99.90
41985;DHT22;28319;48.116;10.818;2023-04-01T02:51:59;6.50;99.90
41985;DHT22;28319;48.116;10.818;2023-04-01T02:57:01;6.40;99.90
41985;DHT22;28319;48.116;10.818;2023-04-01T03:02:03;6.30;99.90
41985;DHT22;28319;48.116;10.818;2023-04-01T03:07:07;6.30;99.90
41985;DHT22;28319;48.116;10.818;2023-04-01T03:12:10;6.20;99.90
41985;DHT22;28319;48.116;10.818;2023-04-01T03:17:12;6.20;99.90
41985;DHT22;28319;48.116;10.818;2023-04-01T03:22:16;6.20;99.90
41985;DHT22;28319;48.116;10.818;2023-04-01T03:27:21;6.20;99.90
41985;DHT22;28319;48.116;10.818;2023-04-01T03:32:23;6.20;99.90
41985;DHT22;28319;48.116;10.818;2023-04-01T03:37:27;6.20;99.90
41985;DHT22;28319;48.116;10.818;2023-04-01T03:42:30;6.20;99.90
41985;DHT22;28319;48.116;10.818;2023-04-01T03:47:34;6.30;99.90
41985;DHT22;28319;48.116;10.818;2023-04-01T03:52:37;6.30;99.90
41985;DHT22;28319;48.116;10.818;2023-04-01T03:57:40;6.30;99.90
41985;DHT22;28319;48.116;10.818;2023-04-01T04:02:42;6.40;99.90
41985;DHT22;28319;48.116;10.818;2023-04-01T04:07:45;6.40;99.90
41985;DHT22;28319;48.116;10.818;2023-04-01T04:12:49;6.40;99.90
41985;DHT22;28319;48.116;10.818;2023-04-01T04:17:51;6.50;99.90
41985;DHT22;28319;48.116;10.818;2023-04-01T04:22:55;6.60;99.90
41985;DHT22;28319;48.116;10.818;2023-04-01T04:27:58;6.60;99.90
41985;DHT22;28319;48.116;10.818;2023-04-01T04:33:00;6.60;99.90
41985;DHT22;28319;48.116;10.818;2023-04-01T04:38:04;6.70;99.90
41985;DHT22;28319;48.116;10.818;2023-04-01T04:43:06;6.70;99.90
41985;DHT22;28319;48.116;10.818;2023-04-01T04:48:09;6.70;99.90
41985;DHT22;28319;48.116;10.818;2023-04-01T04:53:15;6.70;99.90
41985;DHT22;28319;48.116;10.818;2023-04-01T04:58:19;6.70;99.90
41985;DHT22;28319;48.116;10.818;2023-04-01T05:03:21;6.70;99.90
41985;DHT22;28319;48.116;10.818;2023-04-01T05:08:24;6.70;99.90
41985;DHT22;28319;48.116;10.818;2023-04-01T05:13:26;6.70;99.90
41985;DHT22;28319;48.116;10.818;2023-04-01T05:18:29;6.70;99.90
41985;DHT22;28319;48.116;10.818;2023-04-01T05:23:33;6.70;99.90
41985;DHT22;28319;48.116;10.818;2023-04-01T05:28:35;6.70;99.90
41985;DHT22;28319;48.116;10.818;2023-04-01T05:33:37;6.70;99.90
41985;DHT22;28319;48.116;10.818;2023-04-01T05:38:41;6.70;99.90
41985;DHT22;28319;48.116;10.818;2023-04-01T05:43:46;6.70;99.90
41985;DHT22;28319;48.116;10.818;2023-04-01T05:48:48;6.80;99.90
41985;DHT22;28319;48.116;10.818;2023-04-01T05:53:51;6.80;99.90
41985;DHT22;28319;48.116;10.818;2023-04-01T05:58:54;6.90;99.90
41985;DHT22;28319;48.116;10.818;2023-04-01T06:03:56;7.00;99.90
41985;DHT22;28319;48.116;10.818;2023-04-01T06:09:07;7.00;99.90
41985;DHT22;28319;48.116;10.818;2023-04-01T06:14:16;7.00;99.90
41985;DHT22;28319;48.116;10.818;2023-04-01T06:19:34;7.00;99.90
41985;DHT22;28319;48.116;10.818;2023-04-01T06:25:16;7.00;99.90
41985;DHT22;28319;48.116;10.818;2023-04-01T06:30:34;7.10;99.90
41985;DHT22;28319;48.116;10.818;2023-04-01T06:35:56;7.20;99.90
41985;DHT22;28319;48.116;10.818;2023-04-01T06:41:25;7.20;99.90
41985;DHT22;28319;48.116;10.818;2023-04-01T06:46:34;7.20;99.90
41985;DHT22;28319;48.116;10.818;2023-04-01T06:51:47;7.30;99.90
41985;DHT22;28319;48.116;10.818;2023-04-01T06:56:58;7.30;99.90
41985;DHT22;28319;48.116;10.818;2023-04-01T07:02:05;7.40;99.90
41985;DHT22;28319;48.116;10.818;2023-04-01T07:07:19;7.40;99.90
41985;DHT22;28319;48.116;10.818;2023-04-01T07:12:32;7.60;99.90
41985;DHT22;28319;48.116;10.818;2023-04-01T07:17:37;7.60;99.90
41985;DHT22;28319;48.116;10.818;2023-04-01T07:22:43;7.80;99.90
41985;DHT22;28319;48.116;10.818;2023-04-01T07:27:48;7.80;99.90
41985;DHT22;28319;48.116;10.818;2023-04-01T07:32:55;7.80;99.90
41985;DHT22;28319;48.116;10.818;2023-04-01T07:38:12;7.80;99.90
41985;DHT22;28319;48.116;10.818;2023-04-01T07:48:51;7.80;99.90
41985;DHT22;28319;48.116;10.818;2023-04-01T07:54:02;7.90;99.90
41985;DHT22;28319;48.116;10.818;2023-04-01T07:59:12;8.00;99.90
41985;DHT22;28319;48.116;10.818;2023-04-01T08:04:25;8.10;99.90
41985;DHT22;28319;48.116;10.818;2023-04-01T08:09:34;8.20;99.90
41985;DHT22;28319;48.116;10.818;2023-04-01T08:14:47;8.30;99.90
41985;DHT22;28319;48.116;10.818;2023-04-01T08:20:04;8.50;99.90
41985;DHT22;28319;48.116;10.818;2023-04-01T08:25:16;8.60;99.90
41985;DHT22;28319;48.116;10.818;2023-04-01T08:30:23;8.70;99.90
41985;DHT22;28319;48.116;10.818;2023-04-01T08:35:31;8.70;99.90
41985;DHT22;28319;48.116;10.818;2023-04-01T08:40:55;8.80;99.90
41985;DHT22;28319;48.116;10.818;2023-04-01T08:46:13;9.00;99.90
41985;DHT22;28319;48.116;10.818;2023-04-01T08:52:03;9.00;99.90
41985;DHT22;28319;48.116;10.818;2023-04-01T08:57:15;9.40;99.90
41985;DHT22;28319;48.116;10.818;2023-04-01T09:07:58;9.50;99.90
41985;DHT22;28319;48.116;10.818;2023-04-01T09:13:14;9.70;99.90
41985;DHT22;28319;48.116;10.818;2023-04-01T09:18:50;9.70;99.90
41985;DHT22;28319;48.116;10.818;2023-04-01T09:24:26;9.70;99.90
41985;DHT22;28319;48.116;10.818;2023-04-01T09:35:02;9.60;99.90
41985;DHT22;28319;48.116;10.818;2023-04-01T09:40:17;9.60;99.90
41985;DHT22;28319;48.116;10.818;2023-04-01T09:45:37;9.60;99.90
41985;DHT22;28319;48.116;10.818;2023-04-01T09:50:51;9.70;99.90
41985;DHT22;28319;48.116;10.818;2023-04-01T09:56:14;9.70;99.90
41985;DHT22;28319;48.116;10.818;2023-04-01T10:01:51;9.70;99.90
41985;DHT22;28319;48.116;10.818;2023-04-01T10:07:26;9.70;99.90
41985;DHT22;28319;48.116;10.818;2023-04-01T10:30:34;9.00;99.90
41985;DHT22;28319;48.116;10.818;2023-04-01T10:41:55;8.80;99.90
41985;DHT22;28319;48.116;10.818;2023-04-01T10:47:26;8.70;99.90
41985;DHT22;28319;48.116;10.818;2023-04-01T10:52:53;8.70;99.90
41985;DHT22;28319;48.116;10.818;2023-04-01T11:15:30;7.90;99.90
41985;DHT22;28319;48.116;10.818;2023-04-01T11:21:02;7.80;99.90
41985;DHT22;28319;48.116;10.818;2023-04-01T11:26:14;7.70;99.90
41985;DHT22;28319;48.116;10.818;2023-04-01T11:31:32;7.70;99.90
41985;DHT22;28319;48.116;10.818;2023-04-01T11:36:44;7.60;99.90
41985;DHT22;28319;48.116;10.818;2023-04-01T11:41:58;7.60;99.90
41985;DHT22;28319;48.116;10.818;2023-04-01T11:47:15;7.70;99.90
41985;DHT22;28319;48.116;10.818;2023-04-01T11:52:32;7.70;99.90
41985;DHT22;28319;48.116;10.818;2023-04-01T11:57:53;7.70;99.90
41985;DHT22;28319;48.116;10.818;2023-04-01T12:03:21;7.80;99.90
41985;DHT22;28319;48.116;10.818;2023-04-01T12:08:39;7.90;99.90
41985;DHT22;28319;48.116;10.818;2023-04-01T12:13:49;7.90;99.90
41985;DHT22;28319;48.116;10.818;2023-04-01T12:18:58;8.00;99.90
41985;DHT22;28319;48.116;10.818;2023-04-01T12:35:34;8.10;99.90
41985;DHT22;28319;48.116;10.818;2023-04-01T12:41:02;8.00;99.90
41985;DHT22;28319;48.116;10.818;2023-04-01T12:46:12;8.00;99.90
41985;DHT22;28319;48.116;10.818;2023-04-01T12:51:29;7.90;99.90
41985;DHT22;28319;48.116;10.818;2023-04-01T12:56:46;7.90;99.90
41985;DHT22;28319;48.116;10.818;2023-04-01T13:02:11;7.80;99.90
41985;DHT22;28319;48.116;10.818;2023-04-01T13:07:43;7.90;99.90
41985;DHT22;28319;48.116;10.818;2023-04-01T13:13:13;7.80;99.90
41985;DHT22;28319;48.116;10.818;2023-04-01T13:18:29;7.80;99.90
41985;DHT22;28319;48.116;10.818;2023-04-01T13:23:49;8.00;99.90
41985;DHT22;28319;48.116;10.818;2023-04-01T13:28:59;8.10;99.90
41985;DHT22;28319;48.116;10.818;2023-04-01T13:34:14;8.00;99.90
41985;DHT22;28319;48.116;10.818;2023-04-01T13:39:29;8.20;99.90
41985;DHT22;28319;48.116;10.818;2023-04-01T13:44:37;8.20;99.90
41985;DHT22;28319;48.116;10.818;2023-04-01T13:50:08;8.30;99.90
41985;DHT22;28319;48.116;10.818;2023-04-01T13:55:54;8.20;99.90
41985;DHT22;28319;48.116;10.818;2023-04-01T14:01:05;8.30;99.90
41985;DHT22;28319;48.116;10.818;2023-04-01T14:06:31;8.30;99.90
41985;DHT22;28319;48.116;10.818;2023-04-01T14:11:41;8.30;99.90
41985;DHT22;28319;48.116;10.818;2023-04-01T14:17:02;8.40;99.90
41985;DHT22;28319;48.116;10.818;2023-04-01T14:22:16;8.40;99.90
41985;DHT22;28319;48.116;10.818;2023-04-01T14:27:35;8.40;99.90
41985;DHT22;28319;48.116;10.818;2023-04-01T14:32:48;8.60;99.90
41985;DHT22;28319;48.116;10.818;2023-04-01T14:38:02;8.70;99.90
41985;DHT22;28319;48.116;10.818;2023-04-01T14:48:57;8.70;99.90
41985;DHT22;28319;48.116;10.818;2023-04-01T14:54:12;8.80;99.90
41985;DHT22;28319;48.116;10.818;2023-04-01T14:59:27;8.80;99.90
41985;DHT22;28319;48.116;10.818;2023-04-01T15:04:49;8.80;99.90
41985;DHT22;28319;48.116;10.818;2023-04-01T15:09:59;8.70;99.90
41985;DHT22;28319;48.116;10.818;2023-04-01T15:15:20;8.70;99.90
41985;DHT22;28319;48.116;10.818;2023-04-01T15:20:54;8.70;99.90
41985;DHT22;28319;48.116;10.818;2023-04-01T15:26:17;8.70;99.90
41985;DHT22;28319;48.116;10.818;2023-04-01T15:31:27;8.60;99.90
41985;DHT22;28319;48.116;10.818;2023-04-01T15:36:38;8.60;99.90
41985;DHT22;28319;48.116;10.818;2023-04-01T15:41:49;8.60;99.90
41985;DHT22;28319;48.116;10.818;2023-04-01T15:46:55;8.50;99.90
41985;DHT22;28319;48.116;10.818;2023-04-01T15:52:06;8.50;99.90
41985;DHT22;28319;48.116;10.818;2023-04-01T15:57:19;8.50;99.90
41985;DHT22;28319;48.116;10.818;2023-04-01T16:02:31;8.40;99.90
41985;DHT22;28319;48.116;10.818;2023-04-01T16:07:47;8.40;99.90
41985;DHT22;28319;48.116;10.818;2023-04-01T16:13:02;8.40;99.90
41985;DHT22;28319;48.116;10.818;2023-04-01T16:18:33;8.40;99.90
41985;DHT22;28319;48.116;10.818;2023-04-01T16:23:43;8.40;99.90
41985;DHT22;28319;48.116;10.818;2023-04-01T16:28:53;8.40;99.90
41985;DHT22;28319;48.116;10.818;2023-04-01T16:33:59;8.50;99.90
41985;DHT22;28319;48.116;10.818;2023-04-01T16:39:25;8.40;99.90
41985;DHT22;28319;48.116;10.818;2023-04-01T16:44:29;8.40;99.90
41985;DHT22;28319;48.116;10.818;2023-04-01T16:49:37;8.40;99.90
41985;DHT22;28319;48.116;10.818;2023-04-01T16:54:45;8.40;99.90
41985;DHT22;28319;48.116;10.818;2023-04-01T16:59:55;8.40;99.90
41985;DHT22;28319;48.116;10.818;2023-04-01T17:05:04;8.50;99.90
41985;DHT22;28319;48.116;10.818;2023-04-01T17:10:25;8.40;99.90
41985;DHT22;28319;48.116;10.818;2023-04-01T17:15:35;8.40;99.90
41985;DHT22;28319;48.116;10.818;2023-04-01T17:20:46;8.40;99.90
41985;DHT22;28319;48.116;10.818;2023-04-01T17:26:05;8.30;99.90
41985;DHT22;28319;48.116;10.818;2023-04-01T17:31:16;8.40;99.90
41985;DHT22;28319;48.116;10.818;2023-04-01T17:36:33;8.30;99.90
41985;DHT22;28319;48.116;10.818;2023-04-01T17:41:47;8.20;99.90
41985;DHT22;28319;48.116;10.818;2023-04-01T17:52:26;8.10;99.90
41985;DHT22;28319;48.116;10.818;2023-04-01T17:57:44;8.10;99.90
41985;DHT22;28319;48.116;10.818;2023-04-01T18:02:55;8.10;99.90
41985;DHT22;28319;48.116;10.818;2023-04-01T18:08:24;8.00;99.90
41985;DHT22;28319;48.116;10.818;2023-04-01T18:14:07;8.00;99.90
41985;DHT22;28319;48.116;10.818;2023-04-01T18:19:21;8.00;99.90
41985;DHT22;28319;48.116;10.818;2023-04-01T18:24:28;8.00;99.90
41985;DHT22;28319;48.116;10.818;2023-04-01T18:29:39;7.90;99.90
41985;DHT22;28319;48.116;10.818;2023-04-01T18:34:53;7.90;99.90
41985;DHT22;28319;48.116;10.818;2023-04-01T18:40:03;7.80;99.90
41985;DHT22;28319;48.116;10.818;2023-04-01T18:45:20;7.80;99.90
41985;DHT22;28319;48.116;10.818;2023-04-01T18:50:27;7.70;99.90
41985;DHT22;28319;48.116;10.818;2023-04-01T18:55:35;7.60;99.90
41985;DHT22;28319;48.116;10.818;2023-04-01T19:00:43;7.70;99.90
41985;DHT22;28319;48.116;10.818;2023-04-01T19:05:50;7.70;99.90
41985;DHT22;28319;48.116;10.818;2023-04-01T19:11:03;7.60;99.90
41985;DHT22;28319;48.116;10.818;2023-04-01T19:16:21;7.60;99.90
41985;DHT22;28319;48.116;10.818;2023-04-01T19:21:31;7.50;99.90
41985;DHT22;28319;48.116;10.818;2023-04-01T19:26:39;7.50;99.90
41985;DHT22;28319;48.116;10.818;2023-04-01T19:31:51;7.40;99.90
41985;DHT22;28319;48.116;10.818;2023-04-01T19:36:59;7.40;99.90
41985;DHT22;28319;48.116;10.818;2023-04-01T19:42:12;7.30;99.90
41985;DHT22;28319;48.116;10.818;2023-04-01T19:47:24;7.20;99.90
41985;DHT22;28319;48.116;10.818;2023-04-01T19:52:33;7.10;99.90
41985;DHT22;28319;48.116;10.818;2023-04-01T19:57:44;7.10;99.90
41985;DHT22;28319;48.116;10.818;2023-04-01T20:03:03;7.00;99.90
41985;DHT22;28319;48.116;10.818;2023-04-01T20:08:12;6.90;99.90
41985;DHT22;28319;48.116;10.818;2023-04-01T20:13:23;6.90;99.90
41985;DHT22;28319;48.116;10.818;2023-04-01T20:18:38;6.90;99.90
41985;DHT22;28319;48.116;10.818;2023-04-01T20:23:43;6.90;99.90
41985;DHT22;28319;48.116;10.818;2023-04-01T20:28:56;6.80;99.90
41985;DHT22;28319;48.116;10.818;2023-04-01T20:34:20;6.80;99.90
41985;DHT22;28319;48.116;10.818;2023-04-01T20:45:10;6.70;99.90
41985;DHT22;28319;48.116;10.818;2023-04-01T20:50:23;6.60;99.90
41985;DHT22;28319;48.116;10.818;2023-04-01T21:01:19;6.60;99.90
41985;DHT22;28319;48.116;10.818;2023-04-01T21:06:39;6.60;99.90
41985;DHT22;28319;48.116;10.818;2023-04-01T21:11:50;6.60;99.90
41985;DHT22;28319;48.116;10.818;2023-04-01T21:17:04;6.60;99.90
41985;DHT22;28319;48.116;10.818;2023-04-01T21:22:43;6.60;99.90
41985;DHT22;28319;48.116;10.818;2023-04-01T21:28:00;6.60;99.90
41985;DHT22;28319;48.116;10.818;2023-04-01T21:33:30;6.70;99.90
41985;DHT22;28319;48.116;10.818;2023-04-01T21:39:08;6.80;99.90
41985;DHT22;28319;48.116;10.818;2023-04-01T21:44:37;6.70;99.90
41985;DHT22;28319;48.116;10.818;2023-04-01T21:50:04;6.80;99.90
41985;DHT22;28319;48.116;10.818;2023-04-01T22:00:54;6.80;99.90
41985;DHT22;28319;48.116;10.818;2023-04-01T22:06:17;6.90;99.90
41985;DHT22;28319;48.116;10.818;2023-04-01T22:11:36;6.90;99.90
41985;DHT22;28319;48.116;10.818;2023-04-01T22:16:48;6.90;99.90
41985;DHT22;28319;48.116;10.818;2023-04-01T22:21:58;6.90;99.90
41985;DHT22;28319;48.116;10.818;2023-04-01T22:27:10;6.90;99.90
41985;DHT22;28319;48.116;10.818;2023-04-01T22:32:19;6.90;99.90
41985;DHT22;28319;48.116;10.818;2023-04-01T22:37:27;6.90;99.90
41985;DHT22;28319;48.116;10.818;2023-04-01T22:42:42;6.90;99.90
41985;DHT22;28319;48.116;10.818;2023-04-01T22:47:50;6.80;99.90
41985;DHT22;28319;48.116;10.818;2023-04-01T22:53:03;6.80;99.90
41985;DHT22;28319;48.116;10.818;2023-04-01T22:58:14;6.80;99.90
41985;DHT22;28319;48.116;10.818;2023-04-01T23:03:22;6.70;99.90
41985;DHT22;28319;48.116;10.818;2023-04-01T23:08:41;6.70;99.90
41985;DHT22;28319;48.116;10.818;2023-04-01T23:13:52;6.70;99.90
41985;DHT22;28319;48.116;10.818;2023-04-01T23:18:58;6.60;99.90
41985;DHT22;28319;48.116;10.818;2023-04-01T23:24:07;6.60;99.90
41985;DHT22;28319;48.116;10.818;2023-04-01T23:29:14;6.50;99.90
41985;DHT22;28319;48.116;10.818;2023-04-01T23:34:24;6.50;99.90
41985;DHT22;28319;48.116;10.818;2023-04-01T23:39:30;6.40;99.90
41985;DHT22;28319;48.116;10.818;2023-04-01T23:44:35;6.40;99.90
41985;DHT22;28319;48.116;10.818;2023-04-01T23:49:40;6.40;99.90
41985;DHT22;28319;48.116;10.818;2023-04-01T23:54:49;6.40;99.90
